Flight Briefing for CMB823

Departure Arrival
Patrick Air Force Base (KCOF)
Click to view FAA NOTAMS
Grantley Adams International Airport (TBPB)
Click to view FAA NOTAMS
Departure Time Arrival Time
N/A N/A
Aircraft Distance
B757-200SF 1490nm
Departure METAR Arrival METAR
KCOF 232256Z AUTO 07014KT 10SM CLR 27/19 A3014 RMK AO2 SLP211 T02670193 $ TBPB 232300Z 10012KT 9999 FEW022 27/22 Q1012 NOSIG
Suggested Route
TEDAE VENDS BRRGO BR1L GTK L452 BQN RTE4 COY A555 BG


View recent IFR Routes data
Notes
USTRANSCOM CONTRACT FLIGHT

Charts and Procedures

Charts for KCOF
No chart available
Charts for TBPB
No chart available

Windy.com Weather Map